Time;durP1;ratioP1;P1;durP2;ratioP2;P2;SDS_P1;SDS_P2;PMS_P1;PMS_P2;Temp;Humidity;BMP_temperature;BMP_pressure;BME280_temperature;BME280_humidity;BME280_pressure;Samples;Min_cycle;Max_cycle;Signal;HPM_P1;HPM_P2
2022/04/20 00:01:24;;;;;;;3.40;2.27;;;22.70;36.50;;;;;;5048396;27;88936;-69
2022/04/20 00:03:52;;;;;;;3.33;1.80;;;22.80;36.60;;;;;;5064286;27;88327;-68
2022/04/20 00:06:20;;;;;;;3.10;1.67;;;22.80;36.70;;;;;;5064121;27;88463;-68
2022/04/20 00:08:49;;;;;;;3.03;1.80;;;22.80;36.60;;;;;;5045900;27;90110;-69
2022/04/20 00:11:17;;;;;;;2.50;1.67;;;22.80;36.60;;;;;;5046120;27;88956;-69
2022/04/20 00:13:45;;;;;;;2.70;1.77;;;22.80;36.60;;;;;;5043447;27;88316;-69
2022/04/20 00:16:13;;;;;;;4.23;2.20;;;22.80;36.60;;;;;;5045003;27;88497;-69
2022/04/20 00:18:41;;;;;;;3.17;1.93;;;22.70;36.50;;;;;;5043417;27;89548;-68
2022/04/20 00:21:09;;;;;;;2.20;2.00;;;22.80;36.60;;;;;;5053175;27;89936;-68
2022/04/20 00:23:37;;;;;;;4.23;1.70;;;22.70;36.50;;;;;;5054323;27;88540;-68
2022/04/20 00:26:09;;;;;;;2.90;2.00;;;22.70;36.60;;;;;;5059773;27;88527;-68
2022/04/20 00:28:37;;;;;;;2.87;2.03;;;22.60;36.60;;;;;;5045247;27;90233;-68
2022/04/20 00:31:05;;;;;;;2.73;1.80;;;22.50;36.60;;;;;;5044420;27;88951;-69
2022/04/20 00:33:33;;;;;;;3.87;2.00;;;22.60;36.70;;;;;;5061940;27;88760;-69
2022/04/20 00:36:02;;;;;;;3.37;1.63;;;22.50;36.60;;;;;;5050152;27;88478;-68
2022/04/20 00:38:30;;;;;;;3.20;1.73;;;22.50;36.60;;;;;;5044202;27;90601;-68
2022/04/20 00:40:58;;;;;;;2.93;2.10;;;22.50;36.60;;;;;;5044923;27;89615;-68
2022/04/20 00:43:28;;;;;;;2.13;1.90;;;22.50;36.60;;;;;;5063529;27;88186;-69
2022/04/20 00:45:56;;;;;;;3.27;1.97;;;22.50;36.60;;;;;;5061310;27;88613;-67
2022/04/20 00:48:24;;;;;;;2.07;1.67;;;22.50;36.60;;;;;;5044667;27;89482;-68
2022/04/20 00:50:52;;;;;;;3.23;1.63;;;22.50;36.60;;;;;;5043353;27;89043;-69
2022/04/20 00:53:20;;;;;;;2.03;1.57;;;22.50;36.60;;;;;;5063405;27;88402;-69
2022/04/20 00:55:48;;;;;;;2.90;1.50;;;22.50;36.60;;;;;;5061717;27;88451;-68
2022/04/20 00:58:16;;;;;;;1.80;1.63;;;22.50;36.60;;;;;;5042163;27;89362;-68
2022/04/20 01:00:45;;;;;;;3.83;1.70;;;22.50;36.60;;;;;;5040386;27;88901;-68
2022/04/20 01:03:14;;;;;;;2.97;1.70;;;22.50;36.60;;;;;;5061451;27;88621;-68
2022/04/20 01:05:41;;;;;;;1.63;1.40;;;22.50;37.30;;;;;;5059915;27;88534;-68
2022/04/20 01:08:09;;;;;;;3.23;1.80;;;22.50;36.60;;;;;;5051903;27;91001;-68
2022/04/20 01:10:38;;;;;;;2.50;1.67;;;22.50;37.30;;;;;;5063165;27;90048;-67
2022/04/20 01:13:06;;;;;;;2.77;2.10;;;22.50;36.60;;;;;;5041867;27;88414;-68
2022/04/20 01:15:35;;;;;;;7.47;1.53;;;22.50;36.60;;;;;;5042726;28;88472;-68
2022/04/20 01:18:12;;;;;;;2.60;1.50;;;22.40;36.60;;;;;;5045024;27;90690;-68
2022/04/20 01:20:42;;;;;;;3.00;1.87;;;22.50;36.60;;;;;;5042622;27;90146;-68
2022/04/20 01:23:10;;;;;;;2.17;1.60;;;22.50;36.60;;;;;;5043714;27;88320;-68
2022/04/20 01:25:38;;;;;;;1.57;1.40;;;22.40;36.50;;;;;;5042313;27;88842;-68
2022/04/20 01:28:08;;;;;;;2.67;1.47;;;22.50;36.60;;;;;;5062912;27;90591;-67
2022/04/20 01:30:36;;;;;;;1.87;1.37;;;22.50;36.60;;;;;;5062946;27;88437;-68
2022/04/20 01:33:04;;;;;;;2.47;1.57;;;22.50;36.50;;;;;;5061399;27;88151;-68
2022/04/20 01:35:32;;;;;;;2.40;1.50;;;22.50;36.50;;;;;;5063074;27;88417;-69
2022/04/20 01:38:02;;;;;;;1.67;1.10;;;22.50;36.50;;;;;;5042414;27;89579;-68
2022/04/20 01:40:30;;;;;;;1.43;1.10;;;22.60;36.60;;;;;;5041379;27;89029;-68
2022/04/20 01:42:58;;;;;;;2.10;1.30;;;22.60;36.60;;;;;;5053260;27;88383;-68
2022/04/20 01:45:26;;;;;;;1.87;1.30;;;22.60;36.50;;;;;;5036245;27;88674;-68
2022/04/20 01:47:54;;;;;;;2.03;1.40;;;22.60;36.50;;;;;;5042868;27;92136;-68
2022/04/20 01:50:22;;;;;;;4.07;1.87;;;22.60;36.50;;;;;;5042467;28;89984;-68
2022/04/20 01:52:50;;;;;;;2.00;1.27;;;22.60;36.50;;;;;;5053608;27;88560;-68
2022/04/20 01:55:20;;;;;;;2.23;1.30;;;22.60;36.50;;;;;;5042484;28;88400;-68
2022/04/20 01:57:48;;;;;;;2.40;1.73;;;22.60;36.50;;;;;;5040786;27;93755;-68
2022/04/20 02:00:17;;;;;;;2.50;1.50;;;22.60;36.50;;;;;;5058356;27;90650;-68
2022/04/20 02:02:44;;;;;;;1.83;1.30;;;22.50;36.40;;;;;;5055405;27;88387;-68
2022/04/20 02:05:13;;;;;;;1.83;1.40;;;22.50;36.40;;;;;;5040864;27;88431;-68
2022/04/20 02:07:42;;;;;;;2.13;1.40;;;22.50;36.40;;;;;;5056312;27;89545;-68
2022/04/20 02:10:10;;;;;;;4.77;1.53;;;22.50;36.40;;;;;;5062316;27;89326;-68
2022/04/20 02:12:40;;;;;;;1.97;1.30;;;22.50;36.40;;;;;;5048204;27;88386;-68
2022/04/20 02:15:10;;;;;;;1.90;1.57;;;22.50;36.40;;;;;;5042290;28;89458;-68
2022/04/20 02:17:39;;;;;;;2.37;1.60;;;22.50;36.40;;;;;;5042201;27;90584;-68
2022/04/20 02:20:11;;;;;;;1.80;1.20;;;22.40;36.30;;;;;;5046372;27;89397;-68
2022/04/20 02:22:40;;;;;;;1.80;1.07;;;22.40;36.40;;;;;;5005823;28;88459;-68
2022/04/20 02:25:08;;;;;;;5.00;1.60;;;22.40;36.30;;;;;;5021459;28;88428;-69
2022/04/20 02:27:37;;;;;;;1.70;1.60;;;22.50;36.40;;;;;;5033919;28;93967;-68
2022/04/20 02:30:08;;;;;;;2.10;1.27;;;22.50;36.40;;;;;;5041111;27;91560;-68
2022/04/20 02:32:36;;;;;;;1.37;1.10;;;22.50;36.40;;;;;;5041974;28;88380;-68
2022/04/20 02:35:05;;;;;;;3.27;1.67;;;22.50;36.30;;;;;;5041088;27;88649;-68
2022/04/20 02:37:33;;;;;;;2.57;1.63;;;22.50;36.30;;;;;;5041226;27;89573;-67
2022/04/20 02:40:02;;;;;;;1.30;1.00;;;22.50;36.30;;;;;;5041040;28;90045;-67
2022/04/20 02:42:30;;;;;;;2.60;1.23;;;22.50;36.30;;;;;;5040673;27;89987;-68
2022/04/20 02:44:58;;;;;;;1.57;1.00;;;22.40;36.20;;;;;;5040513;28;88603;-67
2022/04/20 02:47:27;;;;;;;3.77;1.40;;;22.50;36.30;;;;;;5041216;28;90936;-68
2022/04/20 02:49:55;;;;;;;1.87;1.50;;;22.50;36.30;;;;;;5040938;27;88901;-67
2022/04/20 02:52:23;;;;;;;3.40;1.63;;;22.50;36.30;;;;;;5041508;28;89049;-68
2022/04/20 02:54:51;;;;;;;2.40;1.20;;;22.40;36.20;;;;;;5041506;27;88483;-68
2022/04/20 02:57:19;;;;;;;1.70;1.10;;;22.40;36.20;;;;;;5051728;27;89574;-68
2022/04/20 02:59:48;;;;;;;1.40;1.20;;;22.40;36.20;;;;;;5042794;27;89035;-68
2022/04/20 03:02:16;;;;;;;1.67;1.20;;;22.30;36.20;;;;;;5055418;27;88564;-68
2022/04/20 03:04:46;;;;;;;1.70;1.03;;;22.30;36.10;;;;;;5061928;27;88274;-68
2022/04/20 03:07:18;;;;;;;1.37;1.27;;;22.30;36.10;;;;;;5035801;27;89504;-68
2022/04/20 03:09:46;;;;;;;1.10;1.00;;;22.20;36.00;;;;;;5032443;27;88800;-68
2022/04/20 03:12:14;;;;;;;2.77;1.50;;;22.20;36.00;;;;;;5042130;27;88442;-68
2022/04/20 03:14:42;;;;;;;2.07;1.30;;;22.20;36.00;;;;;;5040492;27;88685;-68
2022/04/20 03:17:10;;;;;;;1.97;1.50;;;22.10;36.00;;;;;;5044943;27;91052;-67
2022/04/20 03:19:38;;;;;;;1.50;1.20;;;22.10;36.00;;;;;;5050528;27;89698;-67
2022/04/20 03:22:08;;;;;;;1.50;1.40;;;22.00;35.90;;;;;;5049684;27;88401;-68
2022/04/20 03:24:36;;;;;;;2.20;1.30;;;22.00;35.90;;;;;;5044047;28;88482;-68
2022/04/20 03:27:07;;;;;;;1.83;1.40;;;22.00;35.90;;;;;;5044259;28;93186;-68
2022/04/20 03:29:36;;;;;;;2.60;1.20;;;22.00;35.90;;;;;;5043289;27;88996;-68
2022/04/20 03:32:06;;;;;;;1.27;1.03;;;22.00;35.80;;;;;;5042101;27;88501;-68
2022/04/20 03:34:34;;;;;;;1.50;1.40;;;22.00;35.70;;;;;;5042055;27;88468;-67
2022/04/20 03:37:02;;;;;;;1.90;1.20;;;22.00;35.70;;;;;;5061502;27;90158;-67
2022/04/20 03:39:31;;;;;;;1.50;1.20;;;22.00;35.70;;;;;;5048509;27;90934;-67
2022/04/20 03:41:59;;;;;;;3.17;1.30;;;22.00;36.30;;;;;;5037388;27;88500;-68
2022/04/20 03:44:27;;;;;;;3.23;2.10;;;21.90;35.60;;;;;;5024491;28;88457;-67
2022/04/20 03:46:55;;;;;;;2.03;1.53;;;21.90;35.60;;;;;;5040050;27;90406;-68
2022/04/20 03:49:23;;;;;;;3.60;2.17;;;21.80;35.50;;;;;;5043546;27;88739;-68
2022/04/20 03:51:51;;;;;;;2.23;1.73;;;21.80;35.50;;;;;;5054554;27;88523;-68
2022/04/20 03:54:19;;;;;;;2.73;1.77;;;21.70;35.40;;;;;;5047839;27;88627;-68
2022/04/20 03:57:10;;;;;;;5.23;2.30;;;21.70;35.40;;;;;;5034564;27;90600;-67
2022/04/20 03:59:38;;;;;;;3.83;2.07;;;21.70;35.40;;;;;;5044015;28;90296;-68
2022/04/20 04:02:07;;;;;;;3.17;2.00;;;21.70;36.00;;;;;;5045037;27;88484;-68
2022/04/20 04:04:35;;;;;;;2.90;1.63;;;21.60;35.30;;;;;;5044235;28;88509;-67
2022/04/20 04:07:03;;;;;;;2.67;1.60;;;21.60;35.20;;;;;;5044379;27;90558;-68
2022/04/20 04:09:31;;;;;;;2.00;1.77;;;21.60;35.20;;;;;;5043599;27;88566;-68
2022/04/20 04:12:00;;;;;;;2.90;1.53;;;21.50;35.10;;;;;;5058789;27;89896;-68
2022/04/20 04:14:28;;;;;;;1.90;1.57;;;21.50;35.10;;;;;;5060615;27;88460;-68
2022/04/20 04:16:57;;;;;;;1.80;1.40;;;21.50;35.10;;;;;;5061675;27;89561;-68
2022/04/20 04:19:25;;;;;;;3.40;2.00;;;21.50;35.10;;;;;;5063341;27;89919;-68
2022/04/20 04:21:53;;;;;;;1.30;1.17;;;21.50;35.00;;;;;;5049194;27;88563;-67
2022/04/20 04:24:36;;;;;;;4.23;1.57;;;21.50;35.00;;;;;;5042675;27;88654;-68
2022/04/20 04:27:07;;;;;;;2.07;1.50;;;21.40;34.90;;;;;;5042673;27;91117;-68
2022/04/20 04:29:35;;;;;;;2.27;1.37;;;21.40;34.90;;;;;;5023529;27;89990;-68
2022/04/20 04:32:03;;;;;;;1.47;1.37;;;21.40;34.90;;;;;;5041910;27;91716;-68
2022/04/20 04:34:32;;;;;;;2.70;1.30;;;21.30;34.80;;;;;;5049814;27;88475;-65
2022/04/20 04:36:59;;;;;;;2.33;1.47;;;21.30;34.80;;;;;;5052636;27;89711;-66
2022/04/20 04:39:29;;;;;;;2.07;1.50;;;21.30;35.00;;;;;;5048585;27;89619;-65
2022/04/20 04:42:00;;;;;;;2.37;1.27;;;21.30;35.10;;;;;;5046251;27;89196;-65
2022/04/20 04:44:32;;;;;;;2.83;1.93;;;21.30;35.20;;;;;;5053668;27;88655;-65
2022/04/20 04:49:46;;;;;;;2.00;1.20;;;21.40;35.30;;;;;;5041458;27;90394;-65
2022/04/20 04:52:14;;;;;;;2.67;1.67;;;21.40;35.20;;;;;;5058105;27;88446;-65
2022/04/20 04:54:42;;;;;;;1.60;1.40;;;21.50;35.40;;;;;;5041938;27;88480;-63
2022/04/20 04:57:11;;;;;;;5.53;1.53;;;21.60;35.60;;;;;;5047578;27;90724;-64
2022/04/20 04:59:41;;;;;;;3.10;1.93;;;21.60;35.50;;;;;;5049230;27;92951;-65
2022/04/20 05:02:09;;;;;;;3.03;1.67;;;21.60;35.60;;;;;;5040578;28;88410;-65
2022/04/20 05:04:38;;;;;;;1.70;1.57;;;21.60;35.50;;;;;;5040616;28;88643;-66
2022/04/20 05:07:06;;;;;;;2.13;1.57;;;21.70;35.50;;;;;;5041099;28;90525;-64
2022/04/20 05:09:34;;;;;;;2.53;1.70;;;21.70;35.50;;;;;;5041528;28;90081;-64
2022/04/20 05:12:02;;;;;;;1.57;1.33;;;21.80;35.50;;;;;;5040989;28;88936;-66
2022/04/20 05:14:30;;;;;;;3.33;1.50;;;21.80;35.40;;;;;;5041008;28;88455;-65
2022/04/20 05:16:59;;;;;;;1.40;1.20;;;22.00;35.60;;;;;;5038903;28;90683;-66
2022/04/20 05:19:29;;;;;;;2.00;1.30;;;21.90;35.50;;;;;;5036268;27;89195;-66
2022/04/20 05:21:57;;;;;;;1.97;1.57;;;22.00;35.60;;;;;;5059192;27;88819;-66
2022/04/20 05:24:25;;;;;;;1.57;1.37;;;22.00;35.60;;;;;;5061191;27;88634;-65
2022/04/20 05:26:53;;;;;;;2.07;1.47;;;22.10;35.60;;;;;;5061498;27;89319;-65
2022/04/20 05:29:21;;;;;;;1.60;1.20;;;22.10;35.60;;;;;;5048730;27;88454;-65
2022/04/20 05:31:52;;;;;;;3.73;1.30;;;22.00;35.50;;;;;;5040905;28;90189;-65
2022/04/20 05:34:23;;;;;;;2.23;1.47;;;22.00;35.50;;;;;;5041396;28;88551;-65
2022/04/20 05:42:40;;;;;;;1.47;1.20;;;22.00;35.30;;;;;;5040443;27;89425;-67
2022/04/20 05:45:09;;;;;;;3.33;1.23;;;22.00;35.30;;;;;;5040721;27;88685;-68
2022/04/20 05:47:39;;;;;;;1.80;1.37;;;22.00;35.30;;;;;;5040877;28;90599;-67
2022/04/20 05:50:09;;;;;;;1.27;1.17;;;22.10;35.40;;;;;;5040681;27;88442;-68
2022/04/20 05:52:37;;;;;;;1.07;0.90;;;22.10;35.40;;;;;;5040767;28;90119;-68
2022/04/20 05:55:07;;;;;;;1.63;1.53;;;22.10;35.40;;;;;;5040393;28;88656;-68
2022/04/20 05:57:35;;;;;;;4.10;1.40;;;22.10;35.40;;;;;;5040112;27;90586;-68
2022/04/20 06:00:04;;;;;;;2.10;1.47;;;22.10;35.40;;;;;;5040702;28;90225;-67
2022/04/20 06:02:33;;;;;;;1.33;1.00;;;22.10;35.40;;;;;;5040683;28;88355;-68
2022/04/20 06:05:01;;;;;;;3.10;1.57;;;22.10;35.40;;;;;;5040507;27;88469;-68
2022/04/20 06:07:31;;;;;;;3.10;1.63;;;22.10;35.40;;;;;;5039719;27;89537;-68
2022/04/20 06:09:59;;;;;;;3.10;1.30;;;22.10;35.40;;;;;;5040043;27;89244;-67
2022/04/20 06:12:27;;;;;;;2.20;1.50;;;22.10;35.40;;;;;;5040281;27;88444;-67
2022/04/20 06:14:55;;;;;;;2.27;1.60;;;22.20;35.40;;;;;;5039355;27;88661;-67
2022/04/20 06:17:23;;;;;;;1.67;0.93;;;22.10;35.30;;;;;;5039857;28;88571;-67
2022/04/20 06:19:51;;;;;;;3.27;1.40;;;22.10;35.30;;;;;;5039667;28;90048;-67
2022/04/20 06:22:19;;;;;;;1.83;1.27;;;22.20;35.30;;;;;;5039781;27;89931;-67
2022/04/20 06:24:49;;;;;;;3.17;1.70;;;22.10;35.20;;;;;;5040698;28;88262;-67
2022/04/20 06:27:17;;;;;;;2.13;1.20;;;22.10;35.10;;;;;;5038576;28;90732;-67
2022/04/20 06:29:45;;;;;;;1.77;0.97;;;22.10;35.10;;;;;;5039537;27;90183;-67
2022/04/20 06:32:13;;;;;;;1.73;1.30;;;22.10;35.00;;;;;;5039828;28;91080;-67
2022/04/20 06:34:41;;;;;;;1.90;1.10;;;22.10;35.00;;;;;;5031870;28;88457;-67
2022/04/20 06:37:09;;;;;;;2.30;1.47;;;22.10;34.90;;;;;;5020038;28;89331;-67
2022/04/20 06:39:37;;;;;;;2.90;1.17;;;22.10;34.90;;;;;;5019676;28;91879;-67
2022/04/20 06:42:09;;;;;;;1.50;1.30;;;22.10;34.80;;;;;;5029773;28;89258;-67
2022/04/20 06:44:37;;;;;;;2.10;1.27;;;22.10;34.80;;;;;;5039643;28;88538;-67
2022/04/20 06:47:06;;;;;;;4.87;1.40;;;22.10;34.70;;;;;;5039708;28;93024;-67
2022/04/20 06:49:34;;;;;;;1.50;0.97;;;22.10;34.70;;;;;;5039730;27;88997;-67
2022/04/20 07:00:34;;;;;;;1.23;1.13;;;22.20;34.60;;;;;;5033649;27;89015;-68
2022/04/20 07:03:02;;;;;;;1.00;0.90;;;22.20;34.60;;;;;;5039224;27;88439;-67
2022/04/20 07:05:30;;;;;;;1.90;1.20;;;22.20;34.60;;;;;;5040056;28;88390;-67
2022/04/20 07:08:01;;;;;;;2.73;1.47;;;22.30;34.60;;;;;;5040082;28;88991;-67
2022/04/20 07:10:29;;;;;;;1.20;1.03;;;22.30;34.60;;;;;;5039681;28;92445;-68
2022/04/20 07:12:58;;;;;;;1.57;0.87;;;22.20;34.50;;;;;;5039266;28;89807;-67
2022/04/20 07:15:26;;;;;;;1.43;1.00;;;22.20;34.40;;;;;;5039799;27;88702;-67
2022/04/20 07:17:54;;;;;;;2.57;1.17;;;22.20;34.40;;;;;;5038808;28;89648;-67
2022/04/20 07:20:22;;;;;;;1.50;1.30;;;22.20;34.40;;;;;;5038725;27;90889;-66
2022/04/20 07:22:50;;;;;;;1.30;1.00;;;22.10;34.30;;;;;;5039464;28;88649;-66
2022/04/20 07:25:19;;;;;;;2.20;0.97;;;22.10;34.30;;;;;;5039011;28;88541;-67
2022/04/20 07:27:48;;;;;;;2.43;1.20;;;22.10;34.30;;;;;;5039989;28;88425;-67
2022/04/20 07:30:18;;;;;;;1.27;1.07;;;22.10;34.20;;;;;;5039004;27;89616;-66
2022/04/20 07:32:47;;;;;;;3.33;1.30;;;22.10;34.20;;;;;;5039713;28;88793;-66
2022/04/20 07:35:15;;;;;;;1.50;1.27;;;22.10;34.20;;;;;;5039517;28;88388;-67
2022/04/20 07:37:43;;;;;;;1.33;1.20;;;22.10;34.80;;;;;;5038513;27;92094;-67
2022/04/20 07:40:12;;;;;;;1.00;0.90;;;22.00;34.00;;;;;;5038771;27;88960;-66
2022/04/20 07:42:40;;;;;;;2.37;0.90;;;22.10;34.10;;;;;;5039337;28;88541;-67
2022/04/20 07:45:09;;;;;;;1.40;1.03;;;22.10;34.10;;;;;;5039193;28;88628;-68
2022/04/20 07:47:39;;;;;;;3.10;1.07;;;22.10;34.10;;;;;;5039380;28;92809;-67
2022/04/20 07:50:20;;;;;;;1.33;1.17;;;22.10;34.10;;;;;;5039125;28;88972;-67
2022/04/20 07:52:49;;;;;;;1.27;0.83;;;22.10;34.10;;;;;;5038269;27;88605;-66
2022/04/20 07:55:18;;;;;;;1.47;0.80;;;22.10;34.10;;;;;;5038717;27;88601;-67
2022/04/20 07:57:46;;;;;;;2.33;1.03;;;22.10;34.10;;;;;;5038689;27;88626;-67
2022/04/20 08:00:15;;;;;;;2.67;1.07;;;22.10;34.00;;;;;;5038664;28;90447;-66
2022/04/20 08:02:45;;;;;;;1.63;1.20;;;22.10;34.00;;;;;;5039500;27;89129;-67
2022/04/20 08:05:14;;;;;;;1.50;0.90;;;22.10;34.00;;;;;;5042579;27;88512;-67
2022/04/20 08:07:42;;;;;;;1.07;0.93;;;22.10;34.00;;;;;;5041855;27;90739;-68
2022/04/20 08:10:11;;;;;;;1.63;0.80;;;22.10;33.90;;;;;;5040814;27;89026;-67
2022/04/20 08:12:39;;;;;;;0.63;0.63;;;22.10;33.90;;;;;;5041842;27;88408;-67
2022/04/20 08:15:08;;;;;;;1.57;0.70;;;22.10;33.90;;;;;;5042414;28;88563;-67
2022/04/20 08:17:37;;;;;;;0.93;0.80;;;22.10;33.90;;;;;;5042385;28;91650;-67
2022/04/20 08:20:09;;;;;;;1.67;1.00;;;22.10;33.90;;;;;;5041715;27;90497;-67
2022/04/20 08:22:40;;;;;;;1.43;0.80;;;22.10;33.80;;;;;;5041579;28;91081;-67
2022/04/20 08:25:09;;;;;;;1.20;1.00;;;22.10;33.80;;;;;;5041690;27;88605;-67
2022/04/20 08:27:37;;;;;;;0.63;0.63;;;22.10;34.50;;;;;;5041242;27;89727;-67
2022/04/20 08:30:06;;;;;;;3.43;1.17;;;22.00;33.80;;;;;;5041892;28;93178;-68
2022/04/20 08:32:37;;;;;;;4.70;1.00;;;22.00;33.70;;;;;;5041621;27;90902;-67
2022/04/20 08:35:07;;;;;;;1.37;0.93;;;22.00;33.80;;;;;;5041732;28;88489;-67
2022/04/20 08:37:42;;;;;;;1.23;1.03;;;21.80;33.50;;;;;;5041563;27;89624;-67
2022/04/20 08:40:11;;;;;;;1.00;0.90;;;22.00;33.70;;;;;;5041439;27;89260;-67
2022/04/20 08:42:40;;;;;;;1.60;1.00;;;22.00;33.70;;;;;;5041963;27;88586;-67
2022/04/20 08:45:09;;;;;;;1.00;0.90;;;22.00;33.70;;;;;;5041620;27;88660;-67
2022/04/20 08:47:38;;;;;;;0.67;0.63;;;22.00;33.70;;;;;;5041409;28;90379;-67
2022/04/20 08:50:10;;;;;;;0.80;0.80;;;21.90;33.60;;;;;;5041398;28;90021;-67
2022/04/20 08:52:38;;;;;;;1.20;1.10;;;22.00;33.70;;;;;;5040986;27;90038;-67
2022/04/20 08:55:09;;;;;;;1.17;0.90;;;22.00;33.70;;;;;;5041887;27;88617;-69
2022/04/20 08:57:38;;;;;;;1.27;0.90;;;22.00;33.70;;;;;;5041240;28;89604;-67
2022/04/20 09:00:09;;;;;;;0.80;0.80;;;22.00;33.70;;;;;;5041689;28;88903;-68
2022/04/20 09:02:37;;;;;;;0.87;0.83;;;22.00;33.60;;;;;;5041351;28;89124;-67
2022/04/20 09:05:08;;;;;;;2.43;0.90;;;22.00;33.60;;;;;;5041864;28;88544;-67
2022/04/20 09:07:43;;;;;;;1.20;1.10;;;22.00;33.60;;;;;;5040591;27;89503;-67
2022/04/20 09:10:11;;;;;;;0.60;0.60;;;22.00;33.60;;;;;;5041007;28;90062;-67
2022/04/20 09:12:41;;;;;;;1.90;1.03;;;22.00;33.60;;;;;;5041157;28;88787;-67
2022/04/20 09:15:10;;;;;;;1.00;0.80;;;22.00;33.50;;;;;;5040721;27;88610;-67
2022/04/20 09:17:41;;;;;;;1.00;0.90;;;22.00;33.50;;;;;;5040931;28;91700;-67
2022/04/20 09:20:15;;;;;;;1.20;1.10;;;22.00;33.50;;;;;;5040860;28;90058;-66
2022/04/20 09:22:44;;;;;;;1.10;0.90;;;22.00;33.50;;;;;;5041312;28;89514;-66
2022/04/20 09:25:14;;;;;;;1.07;0.80;;;22.00;33.40;;;;;;5041372;27;88314;-67
2022/04/20 09:27:43;;;;;;;1.07;0.90;;;22.00;33.50;;;;;;5041244;27;89814;-67
2022/04/20 09:30:11;;;;;;;1.17;1.00;;;22.10;33.60;;;;;;5041221;28;89918;-66
2022/04/20 09:32:40;;;;;;;2.97;1.00;;;22.10;33.60;;;;;;5041026;28;88820;-67
2022/04/20 09:35:12;;;;;;;1.23;1.10;;;22.10;33.50;;;;;;5040476;27;88683;-66
2022/04/20 09:37:40;;;;;;;0.90;0.73;;;22.10;33.40;;;;;;5040947;28;92607;-66
2022/04/20 09:40:11;;;;;;;1.07;0.97;;;22.10;33.50;;;;;;5041084;28;89094;-67
2022/04/20 09:42:59;;;;;;;1.17;0.90;;;22.00;33.30;;;;;;5040384;27;88659;-67
2022/04/20 09:45:27;;;;;;;1.27;1.10;;;22.10;33.40;;;;;;5040451;27;88743;-66
2022/04/20 09:50:43;;;;;;;1.30;1.00;;;22.10;33.30;;;;;;5040648;28;90117;-66
2022/04/20 09:53:12;;;;;;;1.13;0.97;;;22.00;33.20;;;;;;5040490;28;88335;-67
2022/04/20 09:55:41;;;;;;;1.23;1.13;;;22.00;33.10;;;;;;5040815;28;90247;-66
2022/04/20 09:58:13;;;;;;;1.53;0.97;;;22.00;33.00;;;;;;5040105;28;91104;-66
2022/04/20 10:00:41;;;;;;;2.60;1.27;;;21.90;32.90;;;;;;5040476;28;89906;-67
2022/04/20 10:03:09;;;;;;;0.70;0.70;;;21.90;32.90;;;;;;5040553;27;88425;-66
2022/04/20 10:05:38;;;;;;;1.90;1.00;;;21.90;32.90;;;;;;5039704;28;88708;-67
2022/04/20 10:08:07;;;;;;;3.33;1.10;;;22.00;33.00;;;;;;5040490;27;89688;-66
2022/04/20 10:10:35;;;;;;;1.43;1.20;;;22.00;32.90;;;;;;5040308;27;89584;-66
2022/04/20 10:13:04;;;;;;;1.40;1.07;;;22.00;32.90;;;;;;5040187;27;88285;-66
2022/04/20 10:18:19;;;;;;;0.97;0.90;;;22.00;32.80;;;;;;5040098;27;89068;-66
2022/04/20 10:20:50;;;;;;;0.90;0.80;;;22.00;32.80;;;;;;5039889;28;92077;-66
2022/04/20 10:23:20;;;;;;;1.30;0.73;;;22.00;32.90;;;;;;5039624;27;89201;-67
2022/04/20 10:25:49;;;;;;;1.97;0.87;;;22.00;32.90;;;;;;5039024;27;88706;-67
2022/04/20 10:28:22;;;;;;;1.33;0.83;;;22.10;32.90;;;;;;5040675;28;92046;-67
2022/04/20 10:31:00;;;;;;;1.47;0.70;;;22.10;32.80;;;;;;5039808;28;90223;-67
2022/04/20 10:33:31;;;;;;;0.70;0.70;;;21.70;32.50;;;;;;5039550;28;88704;-67
2022/04/20 10:36:00;;;;;;;0.77;0.77;;;22.00;32.70;;;;;;5039861;28;88289;-66
2022/04/20 10:38:31;;;;;;;1.53;1.07;;;22.00;32.80;;;;;;5040313;28;90209;-67
2022/04/20 10:41:02;;;;;;;1.00;0.90;;;22.00;32.80;;;;;;5039739;28;90271;-66
2022/04/20 10:43:31;;;;;;;1.33;1.00;;;22.00;32.80;;;;;;5039328;27;89001;-67
2022/04/20 10:46:03;;;;;;;0.47;0.47;;;22.00;32.80;;;;;;5040131;28;87989;-67
2022/04/20 10:48:55;;;;;;;1.97;0.90;;;22.00;32.60;;;;;;5038785;28;91382;-69
2022/04/20 10:51:24;;;;;;;1.20;1.10;;;22.00;32.60;;;;;;5039128;27;88944;-67
2022/04/20 10:53:54;;;;;;;1.07;1.00;;;22.00;32.60;;;;;;5039565;28;88864;-67
2022/04/20 10:56:22;;;;;;;3.13;1.10;;;22.00;32.60;;;;;;5039806;28;88389;-67
2022/04/20 10:59:10;;;;;;;0.90;0.80;;;22.00;32.60;;;;;;5039963;28;90094;-67
2022/04/20 11:02:09;;;;;;;1.43;0.90;;;21.90;32.50;;;;;;5039683;28;91807;-68
2022/04/20 11:04:41;;;;;;;0.67;0.67;;;22.00;32.60;;;;;;5039385;27;88329;-67
2022/04/20 11:07:23;;;;;;;0.60;0.60;;;22.10;32.60;;;;;;5039827;28;88389;-67
2022/04/20 11:10:05;;;;;;;0.50;0.50;;;22.00;32.50;;;;;;5039847;27;89588;-67
2022/04/20 11:18:39;;;;;;;0.63;0.60;;;22.00;32.40;;;;;;5039802;27;88440;-67
2022/04/20 11:21:17;;;;;;;0.90;0.70;;;22.00;32.40;;;;;;5039548;27;90069;-67
2022/04/20 11:23:57;;;;;;;0.80;0.80;;;22.00;32.40;;;;;;5038401;27;89154;-67
2022/04/20 11:26:28;;;;;;;0.40;0.40;;;22.00;32.40;;;;;;5039777;27;88860;-67
2022/04/20 11:28:57;;;;;;;0.90;0.67;;;22.00;32.40;;;;;;5039487;27;88629;-67
2022/04/20 11:31:25;;;;;;;0.93;0.70;;;22.00;32.40;;;;;;5038691;28;89696;-67
2022/04/20 11:33:54;;;;;;;0.80;0.80;;;22.10;32.40;;;;;;5038555;28;89820;-67
2022/04/20 11:36:22;;;;;;;0.87;0.80;;;22.10;32.40;;;;;;5038653;28;88805;-67
2022/04/20 11:38:50;;;;;;;1.90;0.87;;;22.10;32.30;;;;;;5042621;28;88613;-67
2022/04/20 11:41:20;;;;;;;2.00;0.70;;;22.10;32.30;;;;;;5042919;28;88149;-68
2022/04/20 11:43:50;;;;;;;1.03;0.90;;;22.00;32.20;;;;;;5041405;27;89115;-67
2022/04/20 11:46:20;;;;;;;0.67;0.60;;;22.10;32.30;;;;;;5042805;27;90370;-67
2022/04/20 11:48:53;;;;;;;1.20;0.70;;;22.10;32.30;;;;;;5042904;27;88621;-67
2022/04/20 11:51:23;;;;;;;1.00;0.70;;;22.10;32.30;;;;;;5043148;28;89562;-67
2022/04/20 11:53:52;;;;;;;1.17;0.83;;;22.20;32.30;;;;;;5042261;27;91333;-67
2022/04/20 11:56:36;;;;;;;0.40;0.40;;;22.10;32.20;;;;;;5042956;28;89048;-67
2022/04/20 11:59:07;;;;;;;2.60;1.00;;;22.10;32.30;;;;;;5043439;28;88586;-67
2022/04/20 12:01:36;;;;;;;1.43;1.07;;;22.20;32.30;;;;;;5041560;28;90233;-67
2022/04/20 12:04:12;;;;;;;0.90;0.80;;;22.20;32.30;;;;;;5041914;27;88914;-67
2022/04/20 12:06:52;;;;;;;1.30;0.67;;;22.20;32.20;;;;;;5042912;28;88206;-67
2022/04/20 12:09:21;;;;;;;1.90;1.03;;;22.20;32.20;;;;;;5042655;27;88641;-67
2022/04/20 12:11:51;;;;;;;0.97;0.73;;;22.20;32.20;;;;;;5042059;28;92484;-68
2022/04/20 12:14:22;;;;;;;1.57;0.60;;;22.20;32.20;;;;;;5041858;27;89063;-67
2022/04/20 12:16:51;;;;;;;0.73;0.70;;;22.30;32.30;;;;;;5042283;27;88788;-67
2022/04/20 12:19:20;;;;;;;1.17;0.50;;;22.40;32.40;;;;;;5042348;28;88581;-68
2022/04/20 12:21:48;;;;;;;0.63;0.63;;;22.40;32.30;;;;;;5042210;27;89920;-67
2022/04/20 12:24:20;;;;;;;1.43;0.90;;;22.40;32.20;;;;;;5042585;28;88727;-67
2022/04/20 12:26:49;;;;;;;0.80;0.60;;;22.40;32.20;;;;;;5042104;27;89098;-67
2022/04/20 12:29:18;;;;;;;0.60;0.60;;;22.40;32.20;;;;;;5041997;27;88623;-67
2022/04/20 12:31:49;;;;;;;0.50;0.50;;;22.40;32.20;;;;;;5041954;27;89709;-67
2022/04/20 12:34:18;;;;;;;0.60;0.60;;;22.40;32.20;;;;;;5040783;27;88809;-67
2022/04/20 12:36:53;;;;;;;0.93;0.63;;;22.50;32.30;;;;;;5041651;28;88408;-67
2022/04/20 12:39:35;;;;;;;1.07;0.70;;;22.50;32.30;;;;;;5041340;27;88360;-71
2022/04/20 12:42:07;;;;;;;0.80;0.80;;;22.50;32.20;;;;;;5041548;27;89650;-67
2022/04/20 12:44:46;;;;;;;0.70;0.70;;;22.60;32.30;;;;;;5040919;27;88981;-67
2022/04/20 12:47:39;;;;;;;1.13;0.70;;;22.50;32.20;;;;;;5042019;28;88775;-67
2022/04/20 12:50:34;;;;;;;0.60;0.60;;;22.50;32.20;;;;;;5040229;27;88851;-67
2022/04/20 12:53:02;;;;;;;0.90;0.70;;;22.50;32.20;;;;;;5041618;28;89784;-67
2022/04/20 13:04:16;;;;;;;0.70;0.50;;;22.60;32.20;;;;;;5042076;27;90942;-67
2022/04/20 13:06:44;;;;;;;1.37;0.53;;;22.60;32.20;;;;;;5042455;28;89722;-67
2022/04/20 13:09:12;;;;;;;0.80;0.80;;;22.60;32.20;;;;;;5041204;27;90016;-67
2022/04/20 13:11:40;;;;;;;2.53;0.93;;;22.60;32.20;;;;;;5041384;27;88660;-67
2022/04/20 13:14:09;;;;;;;1.10;0.70;;;22.60;32.20;;;;;;5041192;27;90067;-68
2022/04/20 13:16:37;;;;;;;0.60;0.53;;;22.60;32.20;;;;;;5040812;28;89005;-67
2022/04/20 13:19:05;;;;;;;0.60;0.60;;;22.50;32.20;;;;;;5041481;28;88784;-67
2022/04/20 13:21:42;;;;;;;1.80;0.90;;;22.60;32.20;;;;;;5041827;28;88369;-67
2022/04/20 13:24:09;;;;;;;0.83;0.70;;;22.60;32.20;;;;;;5040811;27;89544;-67
2022/04/20 13:29:23;;;;;;;0.77;0.60;;;22.60;32.20;;;;;;5041006;27;88562;-67
2022/04/20 13:31:52;;;;;;;0.97;0.70;;;22.50;32.10;;;;;;5041249;28;88581;-67
2022/04/20 13:34:20;;;;;;;0.80;0.80;;;22.50;32.20;;;;;;5040899;28;90100;-67
2022/04/20 13:36:49;;;;;;;0.60;0.60;;;22.60;32.30;;;;;;5040695;27;89001;-67
2022/04/20 13:39:17;;;;;;;1.20;0.60;;;22.60;32.20;;;;;;5040892;28;88835;-67
2022/04/20 13:41:45;;;;;;;0.93;0.77;;;22.70;32.90;;;;;;5040337;28;88597;-67